Time;durP1;ratioP1;P1;durP2;ratioP2;P2;SDS_P1;SDS_P2;PMS_P1;PMS_P2;Temp;Humidity;BMP_temperature;BMP_pressure;BME280_temperature;BME280_humidity;BME280_pressure;Samples;Min_cycle;Max_cycle;Signal;HPM_P1;HPM_P2
2023/04/09 00:02:18;;;;;;;134.93;43.17;;;8.90;99.90;;;;;;5057437;28;20045;-83
2023/04/09 00:04:44;;;;;;;133.70;41.35;;;8.90;99.90;;;;;;5053386;28;20052;-84
2023/04/09 00:07:10;;;;;;;125.75;40.72;;;8.80;99.90;;;;;;5053217;28;20048;-84
2023/04/09 00:09:36;;;;;;;135.15;42.92;;;8.80;99.90;;;;;;5052007;28;20045;-83
2023/04/09 00:12:02;;;;;;;134.82;43.22;;;8.80;99.90;;;;;;5052120;28;20051;-82
2023/04/09 00:14:28;;;;;;;141.30;44.20;;;8.80;99.90;;;;;;5051556;28;20087;-82
2023/04/09 00:16:53;;;;;;;139.38;43.55;;;8.80;99.90;;;;;;5052965;28;20130;-82
2023/04/09 00:19:19;;;;;;;121.10;39.15;;;8.80;99.90;;;;;;5051990;28;20041;-80
2023/04/09 00:21:45;;;;;;;127.13;40.67;;;8.80;99.90;;;;;;5051701;28;20382;-83
2023/04/09 00:24:11;;;;;;;121.00;39.05;;;8.80;99.90;;;;;;5052665;28;20079;-83
2023/04/09 00:26:37;;;;;;;131.75;40.53;;;8.80;99.90;;;;;;5052946;28;20106;-81
2023/04/09 00:29:03;;;;;;;117.97;38.35;;;8.80;99.90;;;;;;5051809;28;20048;-82
2023/04/09 00:31:29;;;;;;;127.80;39.83;;;8.80;99.90;;;;;;5052497;28;20048;-83
2023/04/09 00:33:55;;;;;;;111.38;34.38;;;8.80;99.90;;;;;;5052673;28;20045;-81
2023/04/09 00:36:20;;;;;;;113.47;33.85;;;8.80;99.90;;;;;;5051476;28;20040;-80
2023/04/09 00:38:47;;;;;;;114.30;34.80;;;8.80;99.90;;;;;;5052664;28;20053;-83
2023/04/09 00:41:13;;;;;;;103.93;34.42;;;8.80;99.90;;;;;;5051120;28;20070;-81
2023/04/09 00:43:39;;;;;;;98.30;31.20;;;8.70;99.90;;;;;;5051782;28;20119;-82
2023/04/09 00:46:05;;;;;;;89.63;28.52;;;8.70;99.90;;;;;;5052095;28;20448;-81
2023/04/09 00:48:31;;;;;;;66.78;20.60;;;8.70;99.90;;;;;;5039069;28;20123;-81
2023/04/09 00:50:56;;;;;;;95.53;30.05;;;8.70;99.90;;;;;;5078461;28;20139;-80
2023/04/09 00:53:22;;;;;;;89.72;29.77;;;8.70;99.90;;;;;;5058206;28;20120;-82
2023/04/09 00:55:48;;;;;;;90.07;28.45;;;8.70;99.90;;;;;;5056358;28;20057;-83
2023/04/09 00:58:14;;;;;;;95.25;30.48;;;8.60;99.90;;;;;;5055192;28;20055;-83
2023/04/09 01:00:40;;;;;;;90.53;30.58;;;8.60;99.90;;;;;;5067035;28;20048;-84
2023/04/09 01:03:06;;;;;;;96.20;29.60;;;8.60;99.90;;;;;;5038241;28;20066;-82
2023/04/09 01:06:03;;;;;;;91.20;31.20;;;8.40;99.90;;;;;;5072206;28;20044;-84
2023/04/09 01:08:44;;;;;;;90.30;29.30;;;8.50;99.90;;;;;;5071395;28;20049;-85
2023/04/09 01:11:31;;;;;;;92.30;29.38;;;8.50;99.90;;;;;;5072736;28;20048;-85
2023/04/09 01:14:18;;;;;;;99.20;30.98;;;8.50;99.90;;;;;;5073158;28;20151;-83
2023/04/09 01:16:54;;;;;;;94.63;30.10;;;8.40;99.90;;;;;;5071646;28;20515;-85
2023/04/09 01:19:47;;;;;;;88.50;29.42;;;8.40;99.90;;;;;;5072711;28;20053;-85
2023/04/09 01:22:22;;;;;;;90.88;26.98;;;8.40;99.90;;;;;;5071328;28;20037;-76
2023/04/09 01:25:03;;;;;;;102.22;29.42;;;8.40;99.90;;;;;;5072874;28;20564;-82
2023/04/09 01:28:05;;;;;;;90.03;28.67;;;8.40;99.90;;;;;;5071549;28;20064;-83
2023/04/09 01:30:31;;;;;;;83.72;27.63;;;8.40;99.90;;;;;;5056798;28;20059;-84
2023/04/09 01:32:58;;;;;;;90.85;28.27;;;8.40;99.90;;;;;;5072366;28;20036;-83
2023/04/09 01:35:26;;;;;;;94.80;29.55;;;8.40;99.90;;;;;;5072282;28;20062;-83
2023/04/09 01:37:53;;;;;;;88.97;29.13;;;8.40;99.90;;;;;;5072435;28;20405;-84
2023/04/09 01:40:19;;;;;;;99.97;30.63;;;8.40;99.90;;;;;;5070666;28;20055;-81
2023/04/09 01:42:47;;;;;;;89.47;28.00;;;8.30;99.90;;;;;;5071337;28;20079;-84
2023/04/09 01:45:13;;;;;;;;;;;8.30;99.90;;;;;;5104798;28;20056;-83
2023/04/09 01:47:40;;;;;;;87.03;27.17;;;8.30;99.90;;;;;;5070449;28;20339;-85
2023/04/09 01:50:06;;;;;;;93.05;28.60;;;8.30;99.90;;;;;;5071018;28;20052;-85
2023/04/09 01:52:32;;;;;;;92.05;28.98;;;8.30;99.90;;;;;;5070739;28;20176;-85
2023/04/09 01:54:58;;;;;;;88.72;27.95;;;8.40;99.90;;;;;;5072596;28;20124;-84
2023/04/09 01:57:24;;;;;;;89.18;28.30;;;8.30;99.90;;;;;;5053933;28;20056;-81
2023/04/09 01:59:49;;;;;;;86.53;27.88;;;8.30;99.90;;;;;;5070148;28;20087;-84
2023/04/09 02:02:27;;;;;;;92.60;28.60;;;8.30;99.90;;;;;;5071864;28;20051;-86
2023/04/09 02:04:57;;;;;;;85.30;29.00;;;8.30;99.90;;;;;;5105098;28;20056;-83
2023/04/09 02:07:44;;;;;;;91.13;28.42;;;8.30;99.90;;;;;;5071116;28;20110;-83
2023/04/09 02:10:12;;;;;;;89.95;28.75;;;8.30;99.90;;;;;;5072380;28;20485;-79
2023/04/09 02:12:41;;;;;;;90.05;28.70;;;8.30;99.90;;;;;;5072038;28;20398;-82
2023/04/09 02:15:08;;;;;;;89.45;29.58;;;8.20;99.90;;;;;;5075541;28;20127;-82
2023/04/09 02:17:34;;;;;;;89.20;29.75;;;8.20;99.90;;;;;;5068802;28;20045;-84
2023/04/09 02:20:00;;;;;;;87.30;28.50;;;8.20;99.90;;;;;;5055894;28;20053;-83
2023/04/09 02:22:25;;;;;;;94.75;29.00;;;8.20;99.90;;;;;;5053860;28;20036;-83
2023/04/09 02:24:51;;;;;;;87.03;28.45;;;8.20;99.90;;;;;;5054168;28;20485;-83
2023/04/09 02:27:17;;;;;;;82.88;29.38;;;8.20;99.90;;;;;;5054082;28;20477;-83
2023/04/09 02:29:43;;;;;;;85.47;28.45;;;8.20;99.90;;;;;;5053940;28;20393;-83
2023/04/09 02:32:08;;;;;;;85.22;28.05;;;8.20;99.90;;;;;;5054325;28;20044;-84
2023/04/09 02:34:34;;;;;;;87.60;29.10;;;8.20;99.90;;;;;;5054012;28;20128;-84
2023/04/09 02:37:00;;;;;;;90.03;28.63;;;8.20;99.90;;;;;;5054088;28;20084;-84
2023/04/09 02:39:26;;;;;;;89.68;28.88;;;8.20;99.90;;;;;;5054497;28;20044;-83
2023/04/09 02:41:52;;;;;;;94.10;29.33;;;8.20;99.90;;;;;;5053594;28;20094;-84
2023/04/09 02:44:17;;;;;;;88.32;29.50;;;8.20;99.90;;;;;;5054702;28;20055;-83
2023/04/09 02:46:45;;;;;;;94.50;29.52;;;8.20;99.90;;;;;;5054777;28;20625;-83
2023/04/09 02:49:11;;;;;;;90.20;30.55;;;8.20;99.90;;;;;;5055279;28;20053;-84
2023/04/09 02:51:37;;;;;;;92.22;30.55;;;8.20;99.90;;;;;;5055451;28;20048;-83
2023/04/09 02:54:03;;;;;;;92.30;29.02;;;8.20;99.90;;;;;;5053995;28;20037;-83
2023/04/09 02:56:29;;;;;;;94.20;29.63;;;8.20;99.90;;;;;;5055765;28;20406;-84
2023/04/09 02:58:54;;;;;;;90.57;30.05;;;8.20;99.90;;;;;;5064110;28;20049;-84
2023/04/09 03:01:21;;;;;;;91.10;28.63;;;8.20;99.90;;;;;;5107413;28;20040;-84
2023/04/09 03:03:47;;;;;;;99.68;29.55;;;8.20;99.90;;;;;;5114962;28;20052;-82
2023/04/09 03:06:13;;;;;;;88.50;30.92;;;8.20;99.90;;;;;;5116023;28;20048;-85
2023/04/09 03:08:39;;;;;;;98.60;31.67;;;8.20;99.90;;;;;;5089009;28;20049;-81
2023/04/09 03:11:05;;;;;;;89.57;30.13;;;8.20;99.90;;;;;;5059651;28;20100;-82
2023/04/09 03:13:30;;;;;;;84.45;28.80;;;8.20;99.90;;;;;;5043001;28;20068;-79
2023/04/09 03:15:56;;;;;;;93.50;31.77;;;8.10;99.90;;;;;;5059213;28;20598;-81
2023/04/09 03:18:22;;;;;;;94.97;32.50;;;8.20;99.90;;;;;;5056840;28;20055;-82
2023/04/09 03:20:47;;;;;;;93.75;30.95;;;8.10;99.90;;;;;;5053957;28;20308;-81
2023/04/09 03:23:13;;;;;;;100.82;31.60;;;8.10;99.90;;;;;;5055345;28;20040;-80
2023/04/09 03:25:39;;;;;;;95.95;31.33;;;8.20;99.90;;;;;;5066873;28;20049;-78
2023/04/09 03:28:05;;;;;;;96.43;32.20;;;8.20;99.90;;;;;;5061898;28;20116;-81
2023/04/09 03:30:30;;;;;;;102.82;33.67;;;8.10;99.90;;;;;;5076735;28;20100;-76
2023/04/09 03:32:58;;;;;;;92.20;30.27;;;8.10;99.90;;;;;;5074513;28;20041;-84
2023/04/09 03:35:23;;;;;;;93.00;31.33;;;8.10;99.90;;;;;;5075702;28;20097;-82
2023/04/09 03:37:49;;;;;;;97.30;32.45;;;8.10;99.90;;;;;;5070028;28;20072;-85
2023/04/09 03:40:15;;;;;;;95.53;32.25;;;8.10;99.90;;;;;;5059463;28;20136;-82
2023/04/09 03:42:42;;;;;;;90.22;31.20;;;8.10;99.90;;;;;;5055277;28;20053;-85
2023/04/09 03:45:08;;;;;;;92.80;31.90;;;8.10;99.90;;;;;;5057987;28;20079;-83
2023/04/09 03:47:34;;;;;;;93.03;30.63;;;8.10;99.90;;;;;;5053841;28;20367;-84
2023/04/09 03:50:00;;;;;;;94.32;31.35;;;8.10;99.90;;;;;;5036849;28;20190;-83
2023/04/09 03:52:26;;;;;;;94.45;31.45;;;8.10;99.90;;;;;;5054100;28;20409;-84
2023/04/09 03:54:51;;;;;;;97.88;33.80;;;8.10;99.90;;;;;;5053499;28;20544;-84
2023/04/09 03:57:17;;;;;;;94.82;31.70;;;8.10;99.90;;;;;;5052712;28;20045;-83
2023/04/09 03:59:44;;;;;;;93.90;32.17;;;8.10;99.90;;;;;;5054600;28;20064;-83
2023/04/09 04:02:09;;;;;;;84.85;28.45;;;8.10;99.90;;;;;;5054295;28;20044;-83
2023/04/09 04:04:35;;;;;;;87.47;31.67;;;8.00;99.90;;;;;;5052514;28;20511;-85
2023/04/09 04:07:02;;;;;;;84.50;28.88;;;8.10;99.90;;;;;;5052505;28;20059;-84
2023/04/09 04:09:28;;;;;;;85.93;30.13;;;8.10;99.90;;;;;;5053950;28;20092;-84
2023/04/09 04:11:55;;;;;;;91.25;31.73;;;8.10;99.90;;;;;;5051593;28;20474;-83
2023/04/09 04:14:20;;;;;;;86.13;28.73;;;8.10;99.90;;;;;;5053127;28;20051;-84
2023/04/09 04:16:46;;;;;;;91.68;30.25;;;8.10;99.90;;;;;;5053566;28;20135;-84
2023/04/09 04:19:12;;;;;;;91.93;30.02;;;8.10;99.90;;;;;;5051988;28;20044;-84
2023/04/09 04:21:37;;;;;;;87.13;30.08;;;8.10;99.90;;;;;;5052919;28;20044;-84
2023/04/09 04:24:04;;;;;;;94.65;29.52;;;8.10;99.90;;;;;;5053255;28;20405;-84
2023/04/09 04:26:30;;;;;;;89.75;30.45;;;8.10;99.90;;;;;;5068447;28;20052;-83
2023/04/09 04:28:56;;;;;;;87.70;29.08;;;8.10;99.90;;;;;;5051653;28;20068;-82
2023/04/09 04:31:21;;;;;;;93.78;30.77;;;8.10;99.90;;;;;;5051412;28;20048;-82
2023/04/09 04:33:47;;;;;;;90.57;29.70;;;8.10;99.90;;;;;;5051886;28;20041;-84
2023/04/09 04:36:13;;;;;;;91.55;29.25;;;8.10;99.90;;;;;;5050826;28;20055;-84
2023/04/09 04:38:40;;;;;;;92.25;28.33;;;8.10;99.90;;;;;;5052508;28;20091;-82
2023/04/09 04:41:06;;;;;;;92.05;29.85;;;8.10;99.90;;;;;;5054694;28;20049;-82
2023/04/09 04:43:32;;;;;;;87.87;29.30;;;8.10;99.90;;;;;;5060353;28;20385;-83
2023/04/09 04:45:58;;;;;;;91.90;31.08;;;8.10;99.90;;;;;;5052970;28;20052;-83
2023/04/09 04:48:24;;;;;;;91.68;30.83;;;8.10;99.90;;;;;;5053247;28;20577;-85
2023/04/09 04:51:00;;;;;;;85.05;28.90;;;8.10;99.90;;;;;;5053371;28;20088;-83
2023/04/09 04:53:27;;;;;;;84.45;26.85;;;8.20;99.90;;;;;;5053232;28;20080;-83
2023/04/09 04:55:54;;;;;;;89.95;29.77;;;8.20;99.90;;;;;;5056130;28;20460;-82
2023/04/09 04:58:19;;;;;;;83.53;27.80;;;8.20;99.90;;;;;;5061251;28;20050;-82
2023/04/09 05:00:46;;;;;;;86.47;28.33;;;8.20;99.90;;;;;;5077592;28;20048;-84
2023/04/09 05:03:12;;;;;;;86.05;30.85;;;8.20;99.90;;;;;;5079857;28;20102;-85
2023/04/09 05:05:38;;;;;;;89.70;29.45;;;8.20;99.90;;;;;;5060803;28;20078;-82
2023/04/09 05:08:04;;;;;;;81.70;29.13;;;8.20;99.90;;;;;;5076094;28;20040;-83
2023/04/09 05:10:29;;;;;;;86.38;28.73;;;8.20;99.90;;;;;;5077107;28;20048;-84
2023/04/09 05:12:55;;;;;;;86.90;30.13;;;8.20;99.90;;;;;;5075447;28;20056;-83
2023/04/09 05:15:21;;;;;;;94.07;30.00;;;8.10;99.90;;;;;;5073373;28;20055;-83
2023/04/09 05:17:47;;;;;;;91.35;31.27;;;8.10;99.90;;;;;;5039634;28;20128;-82
2023/04/09 05:20:12;;;;;;;85.88;29.00;;;8.20;99.90;;;;;;5072470;28;20480;-83
2023/04/09 05:22:38;;;;;;;84.50;30.20;;;8.10;99.90;;;;;;5072940;28;20055;-81
2023/04/09 05:25:05;;;;;;;82.22;28.08;;;8.10;99.90;;;;;;5059185;28;20051;-83
2023/04/09 05:27:30;;;;;;;91.97;29.93;;;8.10;99.90;;;;;;5051212;28;20049;-83
2023/04/09 05:29:56;;;;;;;87.45;29.77;;;8.10;99.90;;;;;;5068064;28;20049;-83
2023/04/09 05:32:22;;;;;;;90.90;30.48;;;8.20;99.90;;;;;;5051224;28;20041;-84
2023/04/09 05:34:47;;;;;;;84.70;28.90;;;8.20;99.90;;;;;;5050923;28;20056;-83
2023/04/09 05:37:13;;;;;;;84.82;30.13;;;8.20;99.90;;;;;;5034436;28;20048;-83
2023/04/09 05:39:39;;;;;;;90.22;30.23;;;8.20;99.90;;;;;;5035774;28;20130;-82
2023/04/09 05:42:04;;;;;;;79.90;28.48;;;8.20;99.90;;;;;;5054741;28;20472;-86
2023/04/09 05:44:30;;;;;;;83.15;30.30;;;8.20;99.90;;;;;;5053837;28;20222;-84
2023/04/09 05:46:56;;;;;;;80.22;28.25;;;8.20;99.90;;;;;;5055552;28;20053;-82
2023/04/09 05:49:22;;;;;;;79.88;28.80;;;8.20;99.90;;;;;;5057226;28;20045;-83
2023/04/09 05:51:49;;;;;;;80.00;28.83;;;8.20;99.90;;;;;;5058805;28;20045;-84
2023/04/09 05:54:15;;;;;;;81.97;27.73;;;8.20;99.90;;;;;;5065023;28;20056;-80
2023/04/09 05:56:42;;;;;;;59.85;20.65;;;8.30;99.90;;;;;;5063561;28;20049;-82
2023/04/09 05:59:08;;;;;;;;;;;8.40;99.90;;;;;;5077448;28;20072;-84
2023/04/09 06:01:34;;;;;;;74.88;26.38;;;8.40;99.90;;;;;;5095896;28;19927;-82
2023/04/09 06:04:00;;;;;;;73.13;25.40;;;8.40;99.90;;;;;;5093358;28;20059;-84
2023/04/09 06:06:26;;;;;;;69.65;24.98;;;8.40;99.90;;;;;;5066601;28;20548;-83
2023/04/09 06:08:51;;;;;;;57.92;19.67;;;8.30;99.90;;;;;;5082249;28;20110;-79
2023/04/09 06:11:17;;;;;;;75.97;25.80;;;8.40;99.90;;;;;;5077757;28;20070;-83
2023/04/09 06:13:43;;;;;;;74.50;26.33;;;8.40;99.90;;;;;;5074720;28;20474;-85
2023/04/09 06:16:09;;;;;;;68.80;25.70;;;8.40;99.90;;;;;;5073326;28;20432;-87
2023/04/09 06:18:36;;;;;;;75.47;27.60;;;8.40;99.90;;;;;;5075729;28;20063;-85
2023/04/09 06:21:08;;;;;;;71.85;25.83;;;8.40;99.90;;;;;;5075229;28;20063;-85
2023/04/09 06:23:36;;;;;;;71.78;26.67;;;8.30;99.90;;;;;;5075482;28;20044;-83
2023/04/09 06:26:02;;;;;;;76.15;27.73;;;8.40;99.90;;;;;;5075129;28;20052;-83
2023/04/09 06:28:28;;;;;;;71.45;25.58;;;8.40;99.90;;;;;;5058167;28;20504;-83
2023/04/09 06:30:54;;;;;;;71.82;25.75;;;8.50;99.90;;;;;;5074361;28;20048;-82
2023/04/09 06:33:20;;;;;;;70.78;25.98;;;8.50;99.90;;;;;;5073757;28;20076;-86
2023/04/09 06:35:47;;;;;;;73.13;25.47;;;8.50;99.90;;;;;;5075570;28;20401;-84
2023/04/09 06:38:13;;;;;;;74.88;26.48;;;8.50;99.90;;;;;;5073952;28;20079;-83
2023/04/09 06:40:39;;;;;;;69.10;24.77;;;8.60;99.90;;;;;;5075412;28;20467;-81
2023/04/09 06:43:05;;;;;;;75.22;25.33;;;8.60;99.90;;;;;;5074662;28;20088;-83
2023/04/09 06:45:32;;;;;;;70.75;25.95;;;8.70;99.90;;;;;;5074575;28;20484;-82
2023/04/09 06:47:58;;;;;;;71.05;26.35;;;8.60;99.90;;;;;;5075428;28;20519;-83
2023/04/09 06:50:24;;;;;;;77.28;28.92;;;8.60;99.90;;;;;;5074282;28;20131;-84
2023/04/09 06:52:51;;;;;;;69.03;26.50;;;8.70;99.90;;;;;;5075758;28;20079;-84
2023/04/09 06:55:17;;;;;;;71.30;26.23;;;8.70;99.90;;;;;;5076323;28;20059;-81
2023/04/09 06:57:43;;;;;;;71.20;26.87;;;8.80;99.90;;;;;;5074445;28;20064;-81
2023/04/09 07:00:09;;;;;;;65.82;24.60;;;8.80;99.90;;;;;;5057723;28;20048;-83
2023/04/09 07:02:35;;;;;;;69.32;25.05;;;8.90;99.90;;;;;;5057824;28;20139;-83
2023/04/09 07:05:02;;;;;;;70.10;24.23;;;9.00;99.90;;;;;;5056965;28;20174;-85
2023/04/09 07:07:29;;;;;;;71.60;25.02;;;9.00;99.90;;;;;;5059916;28;20413;-82
2023/04/09 07:09:55;;;;;;;75.68;25.42;;;9.10;99.90;;;;;;5055972;28;20060;-81
2023/04/09 07:12:32;;;;;;;72.43;25.10;;;9.20;99.90;;;;;;5055846;28;20060;-83
2023/04/09 07:14:59;;;;;;;65.72;25.25;;;9.30;99.90;;;;;;5054694;28;20049;-80
2023/04/09 07:17:25;;;;;;;63.80;24.00;;;9.30;99.90;;;;;;5054630;28;20386;-80
2023/04/09 07:19:51;;;;;;;65.38;23.67;;;9.40;99.90;;;;;;5054948;28;20060;-82
2023/04/09 07:22:17;;;;;;;63.60;23.65;;;9.50;99.90;;;;;;5054024;28;20457;-84
2023/04/09 07:24:43;;;;;;;64.30;24.33;;;9.60;99.90;;;;;;5089222;28;20095;-84
2023/04/09 07:27:09;;;;;;;65.13;25.65;;;9.80;99.90;;;;;;5074040;28;20048;-83
2023/04/09 07:29:35;;;;;;;69.13;26.40;;;9.70;99.90;;;;;;5073323;28;20117;-82
2023/04/09 07:32:02;;;;;;;60.63;24.00;;;9.80;99.90;;;;;;5073696;28;20050;-81
2023/04/09 07:34:28;;;;;;;65.43;25.25;;;9.90;99.90;;;;;;5072213;28;20533;-81
2023/04/09 07:36:54;;;;;;;68.53;24.98;;;10.00;99.90;;;;;;5073233;28;20127;-81
2023/04/09 07:39:21;;;;;;;62.22;25.00;;;9.90;99.90;;;;;;5071966;28;20052;-83
2023/04/09 07:41:47;;;;;;;65.22;24.92;;;9.90;99.90;;;;;;5054267;28;20041;-81
2023/04/09 07:44:13;;;;;;;64.10;24.90;;;9.90;99.90;;;;;;5053293;28;20045;-82
2023/04/09 07:46:40;;;;;;;62.10;23.88;;;10.00;99.90;;;;;;5053763;28;20290;-84
2023/04/09 07:49:05;;;;;;;62.38;24.60;;;10.10;99.90;;;;;;5052660;28;20493;-85
2023/04/09 07:51:31;;;;;;;61.45;23.25;;;10.30;99.90;;;;;;5055657;28;20069;-84
2023/04/09 07:53:57;;;;;;;61.28;22.88;;;10.40;99.90;;;;;;5053307;28;20556;-81
2023/04/09 07:56:23;;;;;;;66.40;25.35;;;10.50;99.90;;;;;;5054197;28;20057;-82
2023/04/09 07:58:49;;;;;;;66.75;26.13;;;10.30;99.90;;;;;;5058938;28;20429;-80
2023/04/09 08:01:15;;;;;;;70.90;27.83;;;10.40;99.90;;;;;;5093825;28;20160;-84
2023/04/09 08:03:41;;;;;;;66.47;26.88;;;10.50;99.90;;;;;;5092634;28;20537;-85
2023/04/09 08:06:08;;;;;;;73.95;29.17;;;10.70;99.90;;;;;;5093254;28;20056;-84
2023/04/09 08:08:34;;;;;;;73.57;27.40;;;11.00;99.90;;;;;;5095027;28;20052;-82
2023/04/09 08:11:00;;;;;;;67.60;27.67;;;11.20;99.90;;;;;;5093808;28;20055;-84
2023/04/09 08:13:26;;;;;;;62.88;24.90;;;11.40;99.90;;;;;;5096318;28;20040;-82
2023/04/09 08:15:51;;;;;;;68.03;27.20;;;11.50;99.90;;;;;;5056628;28;20045;-81
2023/04/09 08:18:17;;;;;;;70.20;27.77;;;11.70;99.90;;;;;;5070910;28;20127;-82
2023/04/09 08:20:46;;;;;;;67.25;26.52;;;11.80;99.90;;;;;;5056919;28;20383;-80
2023/04/09 08:23:12;;;;;;;70.20;26.95;;;11.70;99.90;;;;;;5076987;28;20194;-81
2023/04/09 08:25:38;;;;;;;67.32;26.80;;;11.80;99.90;;;;;;5047108;28;20512;-83
2023/04/09 08:28:04;;;;;;;63.13;25.50;;;11.80;99.90;;;;;;5080950;28;20098;-81
2023/04/09 08:30:32;;;;;;;67.43;26.47;;;11.70;99.90;;;;;;5077171;28;20052;-81
2023/04/09 08:33:00;;;;;;;63.90;26.20;;;11.60;99.90;;;;;;5084487;28;20068;-83
2023/04/09 08:35:27;;;;;;;63.38;25.73;;;11.60;99.90;;;;;;5089113;28;20048;-81
2023/04/09 08:37:56;;;;;;;71.72;26.27;;;11.70;99.90;;;;;;5089341;28;20052;-82
2023/04/09 08:40:22;;;;;;;65.70;26.17;;;11.70;99.90;;;;;;5089785;28;20044;-83
2023/04/09 08:42:55;;;;;;;68.53;25.85;;;11.70;99.90;;;;;;5088373;28;20119;-81
2023/04/09 08:45:21;;;;;;;70.25;27.35;;;11.60;99.90;;;;;;5085899;28;20110;-83
2023/04/09 08:47:50;;;;;;;66.75;25.88;;;11.60;99.90;;;;;;5076510;28;20052;-84
2023/04/09 08:50:16;;;;;;;65.75;26.55;;;11.60;99.90;;;;;;5054715;28;20124;-81
2023/04/09 08:52:44;;;;;;;68.65;26.45;;;11.60;99.90;;;;;;5053656;28;20488;-82
2023/04/09 08:55:11;;;;;;;58.67;23.08;;;11.60;99.90;;;;;;5053138;28;20049;-78
2023/04/09 08:57:40;;;;;;;64.47;26.63;;;11.80;99.90;;;;;;5035675;28;20064;-81
2023/04/09 09:00:07;;;;;;;65.97;26.92;;;11.90;99.90;;;;;;5048614;28;20047;-81
2023/04/09 09:02:33;;;;;;;62.35;22.85;;;11.90;99.90;;;;;;5073380;28;20056;-81
2023/04/09 09:04:59;;;;;;;65.07;24.85;;;12.00;99.90;;;;;;5054720;28;20051;-82
2023/04/09 09:07:30;;;;;;;64.82;25.40;;;12.00;99.90;;;;;;5072915;28;20084;-83
2023/04/09 09:09:58;;;;;;;62.75;26.27;;;12.00;99.90;;;;;;5072813;28;20040;-83
2023/04/09 09:12:39;;;;;;;60.72;25.10;;;12.00;99.90;;;;;;5054838;28;20239;-81
2023/04/09 09:15:26;;;;;;;66.88;25.25;;;12.10;99.90;;;;;;5072734;28;20112;-81
2023/04/09 09:17:59;;;;;;;62.60;25.88;;;12.10;99.90;;;;;;5071513;28;20052;-82
2023/04/09 09:20:26;;;;;;;65.47;27.00;;;12.10;99.90;;;;;;5072933;28;20049;-80
2023/04/09 09:22:55;;;;;;;63.05;26.80;;;11.90;99.90;;;;;;5076596;28;20045;-82
2023/04/09 09:25:24;;;;;;;62.05;26.42;;;11.80;99.90;;;;;;5077339;28;20040;-81
2023/04/09 09:27:52;;;;;;;53.72;19.95;;;11.70;99.90;;;;;;5077861;28;20048;-80
2023/04/09 09:30:22;;;;;;;59.90;24.88;;;11.90;99.90;;;;;;5078073;28;20451;-81
2023/04/09 09:32:52;;;;;;;66.72;27.52;;;11.90;99.90;;;;;;5072609;28;20049;-83
2023/04/09 09:35:18;;;;;;;66.32;27.80;;;11.90;99.90;;;;;;5055736;28;20079;-82
2023/04/09 09:37:44;;;;;;;63.40;26.48;;;11.90;99.90;;;;;;5071347;28;20454;-82
2023/04/09 09:40:10;;;;;;;67.72;26.98;;;11.80;99.90;;;;;;5069139;28;20117;-83
2023/04/09 09:42:53;;;;;;;63.30;27.70;;;12.00;99.90;;;;;;5058564;28;20056;-79
2023/04/09 09:45:19;;;;;;;63.67;26.30;;;12.10;99.90;;;;;;5076113;28;20045;-80
2023/04/09 09:47:45;;;;;;;56.33;25.13;;;12.10;99.90;;;;;;5076169;28;20052;-84
2023/04/09 09:50:11;;;;;;;68.45;29.13;;;12.10;99.90;;;;;;5074902;28;20493;-81
2023/04/09 09:52:39;;;;;;;67.55;27.52;;;12.20;99.90;;;;;;5075451;28;20044;-83
2023/04/09 09:55:07;;;;;;;57.50;24.17;;;12.10;99.90;;;;;;5076238;28;20550;-85
2023/04/09 09:57:37;;;;;;;52.58;23.23;;;12.30;99.90;;;;;;5059300;28;20092;-81
2023/04/09 10:00:05;;;;;;;55.35;23.92;;;12.40;99.90;;;;;;5051978;28;20099;-84
2023/04/09 10:02:33;;;;;;;;;;;12.30;99.90;;;;;;5076429;28;20412;-81
2023/04/09 10:05:00;;;;;;;62.67;25.67;;;12.30;99.90;;;;;;5075099;28;19924;-84
2023/04/09 10:07:26;;;;;;;59.78;25.52;;;12.40;99.90;;;;;;5075285;28;20052;-85
2023/04/09 10:09:55;;;;;;;56.25;24.10;;;12.50;99.90;;;;;;5074951;28;20055;-82
2023/04/09 10:12:24;;;;;;;53.85;23.77;;;12.50;99.90;;;;;;5075468;28;20138;-78
2023/04/09 10:14:51;;;;;;;56.38;24.38;;;12.60;99.90;;;;;;5056052;28;20047;-79
2023/04/09 10:17:18;;;;;;;54.67;23.88;;;12.70;99.90;;;;;;5056687;28;20049;-79
2023/04/09 10:19:55;;;;;;;54.50;24.60;;;12.70;99.90;;;;;;5038232;28;20059;-82
2023/04/09 10:22:25;;;;;;;52.40;22.13;;;12.90;99.90;;;;;;5056505;28;20118;-82
2023/04/09 10:24:51;;;;;;;48.47;21.92;;;13.00;99.90;;;;;;5039515;28;20087;-81
2023/04/09 10:27:17;;;;;;;54.85;23.50;;;13.00;99.90;;;;;;5056795;28;20063;-81
2023/04/09 10:29:45;;;;;;;54.95;23.65;;;12.80;99.90;;;;;;5056531;28;20242;-82
2023/04/09 10:32:11;;;;;;;47.75;21.88;;;12.80;99.90;;;;;;5054598;28;20056;-83
2023/04/09 10:34:40;;;;;;;54.83;24.08;;;13.10;99.90;;;;;;5068484;28;20037;-82
2023/04/09 10:37:13;;;;;;;52.15;23.63;;;13.10;99.90;;;;;;5077769;28;20049;-83
2023/04/09 10:39:42;;;;;;;53.20;23.83;;;13.20;99.90;;;;;;5078680;28;20049;-80
2023/04/09 10:42:26;;;;;;;54.70;22.95;;;13.50;99.90;;;;;;5075868;28;20040;-84
2023/04/09 10:45:13;;;;;;;48.33;21.05;;;13.50;99.90;;;;;;5074181;28;20177;-84
2023/04/09 10:47:41;;;;;;;47.30;21.13;;;13.50;99.90;;;;;;5048917;28;20045;-84
2023/04/09 10:50:21;;;;;;;46.85;21.40;;;13.60;99.90;;;;;;5056092;28;20049;-83
2023/04/09 10:52:51;;;;;;;46.38;18.60;;;13.40;99.90;;;;;;5053599;28;20464;-84
2023/04/09 10:55:39;;;;;;;42.95;19.38;;;13.60;99.90;;;;;;5055198;28;20049;-82
2023/04/09 10:58:06;;;;;;;41.13;18.92;;;13.70;99.90;;;;;;5054448;28;20413;-82
2023/04/09 11:00:37;;;;;;;43.65;19.73;;;13.70;99.90;;;;;;5071868;28;20049;-83
2023/04/09 11:03:04;;;;;;;41.58;17.42;;;13.70;99.90;;;;;;5074708;28;20109;-82
2023/04/09 11:05:31;;;;;;;42.33;19.83;;;13.70;99.90;;;;;;5059083;28;20153;-84
2023/04/09 11:07:57;;;;;;;;;;;13.90;99.90;;;;;;5054517;28;20131;-83
2023/04/09 11:10:23;;;;;;;40.80;18.80;;;13.90;99.90;;;;;;5054885;28;19959;-78
2023/04/09 11:12:49;;;;;;;42.97;18.88;;;;;;;;;;5056220;28;20044;-82
2023/04/09 11:15:18;;;;;;;38.63;18.50;;;14.20;99.90;;;;;;5059990;28;20053;-84
2023/04/09 11:17:47;;;;;;;40.67;19.05;;;14.50;99.90;;;;;;5073488;28;20049;-85
2023/04/09 11:20:19;;;;;;;41.20;20.42;;;14.60;99.90;;;;;;5068680;28;20044;-84
2023/04/09 11:22:45;;;;;;;37.80;15.18;;;14.70;99.90;;;;;;5077686;28;20068;-82
2023/04/09 11:25:19;;;;;;;34.40;17.20;;;14.80;99.90;;;;;;5089630;28;20409;-83
2023/04/09 11:27:46;;;;;;;42.65;18.30;;;14.80;99.90;;;;;;5078988;28;20049;-83
2023/04/09 11:30:12;;;;;;;39.20;18.13;;;14.80;99.90;;;;;;5085598;28;20051;-81
2023/04/09 11:32:37;;;;;;;36.17;17.23;;;14.50;99.90;;;;;;5084094;28;20282;-80
2023/04/09 11:35:04;;;;;;;33.75;14.88;;;14.60;99.90;;;;;;5083459;28;20045;-77
2023/04/09 11:37:29;;;;;;;34.45;16.02;;;14.80;99.90;;;;;;5081013;28;20063;-80
2023/04/09 11:39:57;;;;;;;38.85;16.67;;;14.90;99.90;;;;;;5063019;28;20044;-80
2023/04/09 11:42:24;;;;;;;39.80;18.70;;;14.80;99.90;;;;;;5062009;28;20048;-80
2023/04/09 11:44:52;;;;;;;46.78;22.08;;;14.60;99.90;;;;;;5063373;28;20396;-82
2023/04/09 11:47:19;;;;;;;44.92;22.15;;;14.60;99.90;;;;;;5062160;28;20041;-81
2023/04/09 11:49:46;;;;;;;42.38;21.60;;;14.80;99.90;;;;;;5060427;28;20040;-79
2023/04/09 11:52:15;;;;;;;39.07;18.60;;;14.70;99.90;;;;;;5058872;28;20358;-80
2023/04/09 11:54:41;;;;;;;38.88;17.48;;;14.80;99.90;;;;;;5057439;28;20311;-80
2023/04/09 11:57:07;;;;;;;36.40;17.30;;;14.80;99.90;;;;;;5075397;28;20048;-82
2023/04/09 11:59:33;;;;;;;37.03;16.65;;;14.70;99.90;;;;;;5075507;28;20041;-82
2023/04/09 12:02:00;;;;;;;33.45;15.50;;;14.70;99.90;;;;;;5073111;28;20094;-81
2023/04/09 12:04:25;;;;;;;;;;;14.70;99.90;;;;;;5076361;28;20040;-80
2023/04/09 12:06:57;;;;;;;34.60;15.07;;;14.70;99.90;;;;;;5075484;28;19917;-83
2023/04/09 12:09:23;;;;;;;38.10;16.50;;;14.80;99.90;;;;;;5076119;28;20047;-82
2023/04/09 12:11:49;;;;;;;39.35;17.10;;;14.90;99.90;;;;;;5072227;28;20091;-84
2023/04/09 12:14:16;;;;;;;39.67;17.95;;;15.10;99.90;;;;;;5057126;28;20044;-82
2023/04/09 12:16:43;;;;;;;35.28;16.27;;;15.00;99.90;;;;;;5054109;28;20041;-82
2023/04/09 12:19:12;;;;;;;34.50;15.80;;;15.10;99.90;;;;;;5057712;28;20049;-80
2023/04/09 12:21:48;;;;;;;36.95;17.90;;;15.30;99.90;;;;;;5057097;28;20037;-81
2023/04/09 12:24:18;;;;;;;34.63;15.80;;;15.20;99.90;;;;;;5056911;28;20474;-81
2023/04/09 12:26:45;;;;;;;33.67;15.07;;;15.20;99.90;;;;;;5055726;28;20045;-83
2023/04/09 12:29:13;;;;;;;33.83;16.45;;;15.30;99.90;;;;;;5058218;28;20040;-85
2023/04/09 12:31:39;;;;;;;34.45;15.80;;;15.30;99.90;;;;;;5057972;28;20037;-84
2023/04/09 12:34:05;;;;;;;37.03;16.92;;;15.40;99.90;;;;;;5057656;28;20459;-79
2023/04/09 12:36:30;;;;;;;33.92;16.17;;;15.50;99.90;;;;;;5075826;28;20491;-83